createdAt,value
2019-05-26T00:00:31.769Z,10.41
2019-05-26T00:01:31.766Z,10.45
2019-05-26T00:02:31.749Z,10.49
2019-05-26T00:03:31.782Z,10.49
2019-05-26T00:04:31.730Z,10.43
2019-05-26T00:05:31.713Z,10.46
2019-05-26T00:06:31.712Z,10.48
2019-05-26T00:07:31.690Z,10.51
2019-05-26T00:08:31.690Z,10.53
2019-05-26T00:09:44.176Z,10.48
2019-05-26T00:10:31.655Z,10.49
2019-05-26T00:11:31.645Z,10.46
2019-05-26T00:12:31.640Z,10.46
2019-05-26T00:13:31.630Z,10.61
2019-05-26T00:14:31.658Z,10.61
2019-05-26T00:15:31.607Z,10.58
2019-05-26T00:16:31.591Z,10.48
2019-05-26T00:17:31.578Z,10.48
2019-05-26T00:18:33.409Z,10.49
2019-05-26T00:19:31.558Z,10.57
2019-05-26T00:20:31.590Z,10.48
2019-05-26T00:21:31.536Z,10.62
2019-05-26T00:22:31.527Z,10.62
2019-05-26T00:23:31.515Z,10.59
2019-05-26T00:24:31.509Z,10.59
2019-05-26T00:25:31.490Z,10.45
2019-05-26T00:26:31.491Z,10.49
2019-05-26T00:27:31.467Z,10.49
2019-05-26T00:28:31.458Z,10.55
2019-05-26T00:29:31.456Z,10.45
2019-05-26T00:30:31.430Z,10.53
2019-05-26T00:31:31.431Z,10.45
2019-05-26T00:32:31.469Z,10.43
2019-05-26T00:33:31.413Z,10.55
2019-05-26T00:34:31.391Z,10.45
2019-05-26T00:35:31.380Z,10.49
2019-05-26T00:36:31.411Z,10.51
2019-05-26T00:37:47.652Z,10.51
2019-05-26T00:38:32.346Z,10.46
2019-05-26T00:39:31.336Z,10.43
2019-05-26T00:40:44.533Z,10.49
2019-05-26T00:41:31.310Z,10.38
2019-05-26T00:42:31.339Z,10.42
2019-05-26T00:43:31.297Z,10.42
2019-05-26T00:44:31.278Z,10.49
2019-05-26T00:45:31.266Z,10.45
2019-05-26T00:46:31.261Z,10.51
2019-05-26T00:47:31.246Z,10.48
2019-05-26T00:48:31.239Z,10.45
2019-05-26T00:49:31.219Z,10.48
2019-05-26T00:50:31.211Z,10.55
2019-05-26T00:51:31.198Z,10.49
2019-05-26T00:52:31.194Z,10.48
2019-05-26T00:53:31.215Z,10.51
2019-05-26T00:54:31.160Z,10.45
2019-05-26T00:55:31.154Z,10.53
2019-05-26T00:56:31.199Z,10.46
2019-05-26T00:57:31.146Z,10.49
2019-05-26T00:58:31.122Z,10.55
2019-05-26T00:59:31.153Z,10.51
2019-05-26T01:00:31.100Z,10.48
2019-05-26T01:01:31.078Z,10.43
2019-05-26T01:02:31.069Z,10.45
2019-05-26T01:03:31.059Z,10.53
2019-05-26T01:04:31.042Z,10.55
2019-05-26T01:05:31.048Z,10.43
2019-05-26T01:06:31.026Z,10.45
2019-05-26T01:07:31.014Z,10.43
2019-05-26T01:08:31.682Z,10.51
2019-05-26T01:09:30.988Z,10.58
2019-05-26T01:10:30.990Z,10.61
2019-05-26T01:11:43.957Z,10.59
2019-05-26T01:12:30.957Z,10.49
2019-05-26T01:13:30.945Z,10.57
2019-05-26T01:14:30.939Z,10.49
2019-05-26T01:15:30.927Z,10.64
2019-05-26T01:16:30.907Z,10.62
2019-05-26T01:17:30.903Z,10.61
2019-05-26T01:18:30.889Z,10.49
2019-05-26T01:19:30.882Z,10.57
2019-05-26T01:20:30.875Z,10.58
2019-05-26T01:21:30.854Z,10.58
2019-05-26T01:22:30.845Z,10.55
2019-05-26T01:23:30.834Z,10.59
2019-05-26T01:24:30.824Z,10.55
2019-05-26T01:25:30.845Z,10.61
2019-05-26T01:26:30.793Z,10.48
2019-05-26T01:27:30.782Z,10.57
2019-05-26T01:28:30.776Z,10.64
2019-05-26T01:29:30.761Z,10.62
2019-05-26T01:30:30.762Z,10.61
2019-05-26T01:31:30.774Z,10.58
2019-05-26T01:32:30.731Z,10.42
2019-05-26T01:33:30.719Z,10.62
2019-05-26T01:34:30.708Z,10.48
2019-05-26T01:35:30.693Z,10.48
2019-05-26T01:36:30.686Z,10.61
2019-05-26T01:37:30.709Z,10.46
2019-05-26T01:38:30.658Z,10.46
2019-05-26T01:39:30.649Z,10.57
2019-05-26T01:40:30.639Z,10.51
2019-05-26T01:41:30.625Z,10.48
2019-05-26T01:42:43.255Z,10.59
2019-05-26T01:43:30.622Z,10.64
2019-05-26T01:44:30.680Z,10.46
2019-05-26T01:45:30.627Z,10.43
2019-05-26T01:46:30.571Z,10.51
2019-05-26T01:47:30.566Z,10.59
2019-05-26T01:48:30.616Z,10.45
2019-05-26T01:49:30.551Z,10.48
2019-05-26T01:50:30.522Z,10.57
2019-05-26T01:51:30.565Z,10.65
2019-05-26T01:52:30.520Z,10.59
2019-05-26T01:53:30.494Z,10.64
2019-05-26T01:54:30.492Z,10.57
2019-05-26T01:55:30.470Z,10.53
2019-05-26T01:56:30.460Z,10.49
2019-05-26T01:57:30.446Z,10.55
2019-05-26T01:58:30.443Z,10.49
2019-05-26T01:59:30.436Z,10.48
2019-05-26T02:00:30.415Z,10.62
2019-05-26T02:01:30.408Z,10.53
2019-05-26T02:02:30.397Z,10.61
2019-05-26T02:03:30.371Z,10.58
2019-05-26T02:04:30.379Z,10.55
2019-05-26T02:05:30.349Z,10.59
2019-05-26T02:06:30.339Z,10.55
2019-05-26T02:07:30.442Z,10.51
2019-05-26T02:08:38.866Z,10.57
2019-05-26T02:09:31.760Z,10.53
2019-05-26T02:10:30.307Z,10.57
2019-05-26T02:11:30.286Z,10.59
2019-05-26T02:12:30.283Z,10.61
2019-05-26T02:13:42.066Z,10.59
2019-05-26T02:14:30.250Z,10.61
2019-05-26T02:15:30.253Z,10.62
2019-05-26T02:16:30.250Z,10.49
2019-05-26T02:17:30.259Z,10.48
2019-05-26T02:18:30.215Z,10.48
2019-05-26T02:19:30.213Z,10.49
2019-05-26T02:20:30.195Z,10.59
2019-05-26T02:21:30.176Z,10.61
2019-05-26T02:22:30.210Z,10.59
2019-05-26T02:23:30.151Z,10.57
2019-05-26T02:24:30.139Z,10.58
2019-05-26T02:25:30.127Z,10.55
2019-05-26T02:26:30.115Z,10.51
2019-05-26T02:27:30.104Z,10.53
2019-05-26T02:28:30.098Z,10.59
2019-05-26T02:29:30.097Z,10.64
2019-05-26T02:30:30.065Z,10.53
2019-05-26T02:31:30.102Z,10.51
2019-05-26T02:32:30.247Z,10.55
2019-05-26T02:33:30.030Z,10.62
2019-05-26T02:34:30.032Z,10.55
2019-05-26T02:35:30.040Z,10.61
2019-05-26T02:36:30.020Z,10.62
2019-05-26T02:37:29.994Z,10.59
2019-05-26T02:38:30.020Z,10.51
2019-05-26T02:39:29.992Z,10.48
2019-05-26T02:40:29.953Z,10.45
2019-05-26T02:41:29.949Z,10.51
2019-05-26T02:42:29.955Z,10.48
2019-05-26T02:43:29.932Z,10.45
2019-05-26T02:44:43.451Z,10.57
2019-05-26T02:45:29.900Z,10.48
2019-05-26T02:46:29.884Z,10.46
2019-05-26T02:47:29.888Z,10.48
2019-05-26T02:48:29.916Z,10.49
2019-05-26T02:49:29.859Z,10.45
2019-05-26T02:50:29.846Z,10.48
2019-05-26T02:51:29.830Z,10.57
2019-05-26T02:52:29.842Z,10.55
2019-05-26T02:53:29.807Z,10.48
2019-05-26T02:54:29.808Z,10.58
2019-05-26T02:55:29.791Z,10.58
2019-05-26T02:56:29.774Z,10.49
2019-05-26T02:57:29.769Z,10.49
2019-05-26T02:58:29.751Z,10.51
2019-05-26T02:59:29.793Z,10.55
2019-05-26T03:00:29.785Z,10.61
2019-05-26T03:01:29.721Z,10.59
2019-05-26T03:02:29.707Z,10.57
2019-05-26T03:03:29.707Z,10.59
2019-05-26T03:04:29.683Z,10.61
2019-05-26T03:05:29.715Z,10.49
2019-05-26T03:06:29.662Z,10.51
2019-05-26T03:07:29.651Z,10.57
2019-05-26T03:08:29.638Z,10.58
2019-05-26T03:09:29.641Z,10.53
2019-05-26T03:10:29.627Z,10.55
2019-05-26T03:11:29.658Z,10.61
2019-05-26T03:12:29.603Z,10.55
2019-05-26T03:13:29.582Z,10.57
2019-05-26T03:14:29.584Z,10.55
2019-05-26T03:15:42.216Z,10.53
2019-05-26T03:16:30.345Z,10.58
2019-05-26T03:17:29.853Z,10.55
2019-05-26T03:18:29.534Z,10.51
2019-05-26T03:19:29.540Z,10.42
2019-05-26T03:20:29.514Z,10.43
2019-05-26T03:21:29.535Z,10.51
2019-05-26T03:22:29.496Z,10.51
2019-05-26T03:23:29.477Z,10.43
2019-05-26T03:24:29.460Z,10.49
2019-05-26T03:25:29.448Z,10.49
2019-05-26T03:26:29.440Z,10.49
2019-05-26T03:27:29.443Z,10.49
2019-05-26T03:28:29.415Z,10.49
2019-05-26T03:29:29.406Z,10.46
2019-05-26T03:30:29.408Z,10.49
2019-05-26T03:31:29.388Z,10.45
2019-05-26T03:32:29.407Z,10.48
2019-05-26T03:33:29.368Z,10.42
2019-05-26T03:34:29.365Z,10.46
2019-05-26T03:35:29.380Z,10.41
2019-05-26T03:36:29.339Z,10.46
2019-05-26T03:37:29.325Z,10.39
2019-05-26T03:38:29.834Z,10.45
2019-05-26T03:39:43.498Z,10.51
2019-05-26T03:40:30.290Z,10.49
2019-05-26T03:41:29.283Z,10.46
2019-05-26T03:42:29.269Z,10.55
2019-05-26T03:43:29.286Z,10.49
2019-05-26T03:44:29.246Z,10.42
2019-05-26T03:45:29.226Z,10.48
2019-05-26T03:46:41.530Z,10.42
2019-05-26T03:47:29.201Z,10.42
2019-05-26T03:48:29.192Z,10.41
2019-05-26T03:49:29.188Z,10.36
2019-05-26T03:50:29.181Z,10.42
2019-05-26T03:51:29.160Z,10.39
2019-05-26T03:52:29.146Z,10.41
2019-05-26T03:53:29.137Z,10.33
2019-05-26T03:54:29.154Z,10.39
2019-05-26T03:55:29.124Z,10.38
2019-05-26T03:56:29.101Z,10.34
2019-05-26T03:57:29.088Z,10.27
2019-05-26T03:58:29.080Z,10.31
2019-05-26T03:59:29.085Z,10.38
2019-05-26T04:00:29.067Z,10.41
2019-05-26T04:01:29.065Z,10.36
2019-05-26T04:02:29.039Z,10.34
2019-05-26T04:03:29.025Z,10.34
2019-05-26T04:04:29.024Z,10.34
2019-05-26T04:05:29.009Z,10.41
2019-05-26T04:06:29.002Z,10.25
2019-05-26T04:07:28.982Z,10.42
2019-05-26T04:08:28.975Z,10.30
2019-05-26T04:09:28.957Z,10.20
2019-05-26T04:10:28.946Z,10.31
2019-05-26T04:11:28.952Z,10.27
2019-05-26T04:12:28.924Z,10.24
2019-05-26T04:13:28.910Z,10.27
2019-05-26T04:14:28.897Z,10.38
2019-05-26T04:15:28.893Z,10.28
2019-05-26T04:16:28.882Z,10.27
2019-05-26T04:17:43.921Z,10.28
2019-05-26T04:18:28.867Z,10.20
2019-05-26T04:19:28.857Z,10.20
2019-05-26T04:20:28.832Z,10.23
2019-05-26T04:21:28.829Z,10.15
2019-05-26T04:22:28.835Z,10.18
2019-05-26T04:23:28.868Z,10.15
2019-05-26T04:24:28.796Z,10.24
2019-05-26T04:25:28.788Z,10.18
2019-05-26T04:26:28.759Z,10.25
2019-05-26T04:27:28.817Z,10.12
2019-05-26T04:28:28.759Z,10.12
2019-05-26T04:29:28.724Z,10.12
2019-05-26T04:30:28.723Z,10.21
2019-05-26T04:31:28.709Z,10.15
2019-05-26T04:32:28.698Z,10.20
2019-05-26T04:33:28.695Z,10.15
2019-05-26T04:34:28.666Z,10.15
2019-05-26T04:35:28.669Z,10.15
2019-05-26T04:36:28.644Z,10.20
2019-05-26T04:37:28.634Z,10.24
2019-05-26T04:38:28.665Z,10.17
2019-05-26T04:39:28.630Z,10.25
2019-05-26T04:40:28.607Z,10.30
2019-05-26T04:41:28.599Z,10.31
2019-05-26T04:42:28.591Z,10.28
2019-05-26T04:43:28.579Z,10.36
2019-05-26T04:44:28.571Z,10.39
2019-05-26T04:45:28.581Z,10.31
2019-05-26T04:46:28.647Z,10.33
2019-05-26T04:47:28.522Z,10.31
2019-05-26T04:48:40.966Z,10.39
2019-05-26T04:49:28.503Z,10.34
2019-05-26T04:50:28.509Z,10.36
2019-05-26T04:51:28.506Z,10.31
2019-05-26T04:52:28.474Z,10.39
2019-05-26T04:53:28.489Z,10.51
2019-05-26T04:54:28.469Z,10.55
2019-05-26T04:55:28.448Z,10.45
2019-05-26T04:56:28.427Z,10.45
2019-05-26T04:57:28.412Z,10.58
2019-05-26T04:58:28.402Z,10.62
2019-05-26T04:59:28.401Z,10.55
2019-05-26T05:00:28.394Z,10.55
2019-05-26T05:01:28.422Z,10.67
2019-05-26T05:02:28.355Z,10.69
2019-05-26T05:03:28.349Z,10.75
2019-05-26T05:04:28.329Z,10.65
2019-05-26T05:05:28.317Z,10.72
2019-05-26T05:06:28.313Z,10.75
2019-05-26T05:07:28.905Z,10.80
2019-05-26T05:08:28.287Z,10.71
2019-05-26T05:09:28.367Z,10.75
2019-05-26T05:10:41.310Z,10.90
2019-05-26T05:11:29.460Z,10.82
2019-05-26T05:12:28.240Z,10.82
2019-05-26T05:13:28.233Z,10.83
2019-05-26T05:14:28.225Z,10.94
2019-05-26T05:15:28.214Z,10.90
2019-05-26T05:16:28.199Z,10.84
2019-05-26T05:17:28.194Z,10.92
2019-05-26T05:18:28.173Z,11.01
2019-05-26T05:19:40.627Z,10.87
2019-05-26T05:20:28.152Z,10.95
2019-05-26T05:21:28.155Z,11.01
2019-05-26T05:22:28.131Z,11.20
2019-05-26T05:23:28.120Z,11.27
2019-05-26T05:24:28.115Z,11.33
2019-05-26T05:25:28.111Z,11.37
2019-05-26T05:26:28.081Z,11.43
2019-05-26T05:27:28.080Z,11.45
2019-05-26T05:28:28.069Z,11.52
2019-05-26T05:29:28.053Z,11.55
2019-05-26T05:30:28.039Z,11.53
2019-05-26T05:31:28.031Z,11.51
2019-05-26T05:32:28.026Z,11.55
2019-05-26T05:33:28.009Z,11.59
2019-05-26T05:34:28.001Z,11.59
2019-05-26T05:35:27.996Z,11.52
2019-05-26T05:36:27.981Z,11.55
2019-05-26T05:37:27.974Z,11.62
2019-05-26T05:38:27.960Z,11.62
2019-05-26T05:39:27.949Z,11.63
2019-05-26T05:40:27.950Z,11.76
2019-05-26T05:41:27.919Z,11.77
2019-05-26T05:42:27.907Z,11.97
2019-05-26T05:43:27.909Z,11.99
2019-05-26T05:44:27.894Z,12.14
2019-05-26T05:45:27.872Z,12.20
2019-05-26T05:46:27.864Z,12.02
2019-05-26T05:47:27.851Z,11.93
2019-05-26T05:48:27.842Z,11.81
2019-05-26T05:49:27.867Z,12.00
2019-05-26T05:50:41.117Z,11.81
2019-05-26T05:51:27.817Z,11.89
2019-05-26T05:52:27.806Z,11.95
2019-05-26T05:53:27.808Z,11.96
2019-05-26T05:54:27.776Z,11.96
2019-05-26T05:55:27.856Z,11.99
2019-05-26T05:56:27.774Z,11.93
2019-05-26T05:57:27.750Z,11.93
2019-05-26T05:58:27.729Z,11.83
2019-05-26T05:59:27.712Z,11.80
2019-05-26T06:00:27.745Z,11.77
2019-05-26T06:01:27.696Z,11.78
2019-05-26T06:02:27.685Z,11.73
2019-05-26T06:03:27.673Z,11.67
2019-05-26T06:04:27.656Z,11.60
2019-05-26T06:05:27.656Z,11.67
2019-05-26T06:06:27.647Z,11.65
2019-05-26T06:07:27.629Z,11.58
2019-05-26T06:08:27.606Z,11.59
2019-05-26T06:09:27.606Z,11.67
2019-05-26T06:10:27.588Z,11.53
2019-05-26T06:11:27.619Z,11.56
2019-05-26T06:12:27.573Z,11.53
2019-05-26T06:13:27.554Z,11.58
2019-05-26T06:14:27.587Z,11.56
2019-05-26T06:15:27.532Z,11.58
2019-05-26T06:16:27.517Z,11.55
2019-05-26T06:17:27.602Z,11.53
2019-05-26T06:18:27.513Z,11.43
2019-05-26T06:19:27.500Z,11.51
2019-05-26T06:20:27.489Z,11.44
2019-05-26T06:21:40.212Z,11.53
2019-05-26T06:22:27.450Z,11.63
2019-05-26T06:23:27.480Z,11.65
2019-05-26T06:24:27.434Z,11.73
2019-05-26T06:25:27.442Z,11.74
2019-05-26T06:26:27.473Z,11.80
2019-05-26T06:27:27.396Z,11.83
2019-05-26T06:28:27.386Z,11.96
2019-05-26T06:29:27.379Z,11.93
2019-05-26T06:30:27.362Z,12.05
2019-05-26T06:31:27.356Z,12.03
2019-05-26T06:32:27.343Z,12.07
2019-05-26T06:33:27.327Z,12.12
2019-05-26T06:34:27.328Z,12.25
2019-05-26T06:35:27.306Z,12.37
2019-05-26T06:36:27.300Z,12.45
2019-05-26T06:37:27.286Z,12.50
2019-05-26T06:38:27.268Z,12.40
2019-05-26T06:39:27.266Z,12.47
2019-05-26T06:40:27.255Z,12.47
2019-05-26T06:41:33.320Z,12.51
2019-05-26T06:42:28.223Z,12.50
2019-05-26T06:43:27.215Z,12.54
2019-05-26T06:44:27.202Z,12.44
2019-05-26T06:45:27.202Z,12.50
2019-05-26T06:46:27.179Z,12.55
2019-05-26T06:47:27.174Z,12.70
2019-05-26T06:48:27.309Z,12.69
2019-05-26T06:49:27.159Z,12.94
2019-05-26T06:50:27.144Z,13.08
2019-05-26T06:51:27.127Z,13.16
2019-05-26T06:52:40.082Z,13.27
2019-05-26T06:53:27.105Z,13.24
2019-05-26T06:54:27.089Z,13.20
2019-05-26T06:55:27.094Z,13.31
2019-05-26T06:56:27.070Z,13.30
2019-05-26T06:57:27.057Z,13.52
2019-05-26T06:58:27.054Z,13.75
2019-05-26T06:59:27.038Z,14.00
2019-05-26T07:00:27.041Z,14.36
2019-05-26T07:01:27.022Z,14.56
2019-05-26T07:02:27.002Z,14.79
2019-05-26T07:03:26.992Z,14.86
2019-05-26T07:04:26.982Z,14.82
2019-05-26T07:05:26.973Z,14.56
2019-05-26T07:06:27.012Z,14.43
2019-05-26T07:07:26.942Z,14.28
2019-05-26T07:08:26.980Z,14.25
2019-05-26T07:09:26.980Z,14.07
2019-05-26T07:10:26.916Z,14.13
2019-05-26T07:11:26.904Z,14.22
2019-05-26T07:12:26.903Z,14.31
2019-05-26T07:13:26.881Z,14.40
2019-05-26T07:14:26.869Z,14.40
2019-05-26T07:15:26.857Z,14.40
2019-05-26T07:16:37.569Z,14.38
2019-05-26T07:17:27.844Z,14.20
2019-05-26T07:18:26.818Z,14.26
2019-05-26T07:19:26.818Z,14.38
2019-05-26T07:20:26.798Z,14.34
2019-05-26T07:21:26.784Z,14.16
2019-05-26T07:22:26.783Z,13.98
2019-05-26T07:23:38.595Z,13.75
2019-05-26T07:24:29.290Z,13.98
2019-05-26T07:25:26.740Z,13.91
2019-05-26T07:26:26.737Z,13.85
2019-05-26T07:27:26.716Z,14.00
2019-05-26T07:28:26.717Z,14.05
2019-05-26T07:29:26.718Z,14.07
2019-05-26T07:30:26.703Z,14.11
2019-05-26T07:31:26.678Z,14.01
2019-05-26T07:32:26.668Z,14.03
2019-05-26T07:33:26.652Z,14.11
2019-05-26T07:34:26.652Z,14.05
2019-05-26T07:35:26.638Z,13.91
2019-05-26T07:36:26.623Z,13.95
2019-05-26T07:37:26.607Z,13.82
2019-05-26T07:38:26.601Z,13.61
2019-05-26T07:39:26.587Z,13.55
2019-05-26T07:40:26.600Z,13.55
2019-05-26T07:41:26.576Z,13.50
2019-05-26T07:42:26.565Z,13.54
2019-05-26T07:43:28.215Z,13.49
2019-05-26T07:44:26.532Z,13.43
2019-05-26T07:45:26.534Z,13.46
2019-05-26T07:46:26.510Z,13.26
2019-05-26T07:47:26.547Z,13.39
2019-05-26T07:48:26.485Z,13.33
2019-05-26T07:49:26.473Z,13.54
2019-05-26T07:50:27.085Z,13.43
2019-05-26T07:51:26.449Z,13.27
2019-05-26T07:52:26.446Z,13.24
2019-05-26T07:53:26.473Z,13.16
2019-05-26T07:54:38.164Z,13.28
2019-05-26T07:55:26.407Z,13.19
2019-05-26T07:56:26.394Z,13.20
2019-05-26T07:57:26.393Z,13.12
2019-05-26T07:58:26.377Z,13.13
2019-05-26T07:59:26.376Z,13.23
2019-05-26T08:00:26.354Z,13.28
2019-05-26T08:01:35.217Z,13.37
2019-05-26T08:02:27.367Z,13.28
2019-05-26T08:03:26.391Z,13.37
2019-05-26T08:04:26.312Z,13.39
2019-05-26T08:05:26.291Z,13.46
2019-05-26T08:06:26.283Z,13.45
2019-05-26T08:07:26.270Z,13.46
2019-05-26T08:08:26.316Z,13.52
2019-05-26T08:09:26.256Z,13.58
2019-05-26T08:10:26.246Z,13.65
2019-05-26T08:11:26.224Z,13.75
2019-05-26T08:12:30.413Z,13.89
2019-05-26T08:13:26.229Z,13.93
2019-05-26T08:14:26.210Z,14.07
2019-05-26T08:15:26.196Z,14.00
2019-05-26T08:16:26.175Z,13.95
2019-05-26T08:17:26.167Z,13.89
2019-05-26T08:18:26.157Z,14.04
2019-05-26T08:19:26.174Z,13.95
2019-05-26T08:20:26.128Z,14.00
2019-05-26T08:21:26.119Z,14.04
2019-05-26T08:22:26.105Z,13.95
2019-05-26T08:23:26.095Z,14.22
2019-05-26T08:24:26.090Z,14.37
2019-05-26T08:25:39.640Z,14.43
2019-05-26T08:26:26.066Z,14.34
2019-05-26T08:27:26.053Z,14.41
2019-05-26T08:28:26.033Z,14.51
2019-05-26T08:29:26.039Z,14.59
2019-05-26T08:30:26.028Z,14.79
2019-05-26T08:31:26.019Z,14.85
2019-05-26T08:32:25.993Z,15.02
2019-05-26T08:33:25.980Z,14.85
2019-05-26T08:34:25.979Z,14.97
2019-05-26T08:35:25.980Z,15.17
2019-05-26T08:36:25.950Z,15.30
2019-05-26T08:37:25.934Z,15.41
2019-05-26T08:38:25.926Z,15.45
2019-05-26T08:39:25.917Z,15.37
2019-05-26T08:40:25.901Z,15.55
2019-05-26T08:41:25.950Z,15.70
2019-05-26T08:42:28.938Z,15.70
2019-05-26T08:43:26.872Z,15.43
2019-05-26T08:44:25.858Z,15.39
2019-05-26T08:45:25.851Z,15.47
2019-05-26T08:46:25.833Z,15.27
2019-05-26T08:47:25.829Z,15.04
2019-05-26T08:48:25.815Z,14.96
2019-05-26T08:49:25.810Z,15.05
2019-05-26T08:50:25.788Z,15.11
2019-05-26T08:51:25.779Z,15.07
2019-05-26T08:52:25.790Z,15.19
2019-05-26T08:53:25.757Z,15.12
2019-05-26T08:54:25.747Z,15.22
2019-05-26T08:55:25.733Z,15.05
2019-05-26T08:56:37.694Z,14.82
2019-05-26T08:57:25.710Z,14.89
2019-05-26T08:58:29.186Z,14.97
2019-05-26T08:59:25.690Z,14.87
2019-05-26T09:00:25.684Z,14.94
2019-05-26T09:01:25.662Z,14.86
2019-05-26T09:02:25.656Z,14.73
2019-05-26T09:03:25.641Z,14.52
2019-05-26T09:04:25.646Z,14.49
2019-05-26T09:05:25.615Z,14.41
2019-05-26T09:06:25.619Z,14.45
2019-05-26T09:07:25.597Z,14.51
2019-05-26T09:08:25.626Z,14.55
2019-05-26T09:09:25.590Z,14.48
2019-05-26T09:10:25.564Z,14.52
2019-05-26T09:11:25.551Z,14.58
2019-05-26T09:12:25.540Z,14.70
2019-05-26T09:13:25.530Z,14.82
2019-05-26T09:14:25.692Z,15.05
2019-05-26T09:15:25.519Z,15.15
2019-05-26T09:16:34.110Z,15.26
2019-05-26T09:17:25.481Z,15.37
2019-05-26T09:18:25.604Z,15.44
2019-05-26T09:19:25.522Z,15.39
2019-05-26T09:20:25.467Z,15.55
2019-05-26T09:21:25.443Z,15.54
2019-05-26T09:22:25.429Z,15.73
2019-05-26T09:23:25.409Z,16.02
2019-05-26T09:24:25.407Z,16.09
2019-05-26T09:25:25.434Z,16.10
2019-05-26T09:26:25.385Z,16.43
2019-05-26T09:27:25.370Z,16.31
2019-05-26T09:28:25.362Z,16.58
2019-05-26T09:29:25.345Z,16.77
2019-05-26T09:30:25.337Z,16.76
2019-05-26T09:31:25.379Z,16.51
2019-05-26T09:32:25.318Z,16.49
2019-05-26T09:33:25.300Z,16.40
2019-05-26T09:34:25.325Z,16.21
2019-05-26T09:35:25.280Z,16.24
2019-05-26T09:36:25.267Z,16.36
2019-05-26T09:37:25.278Z,16.39
2019-05-26T09:38:25.305Z,16.50
2019-05-26T09:39:25.238Z,16.51
2019-05-26T09:40:25.225Z,16.49
2019-05-26T09:41:25.262Z,16.50
2019-05-26T09:42:25.234Z,16.50
2019-05-26T09:43:25.201Z,16.24
2019-05-26T09:44:25.185Z,16.22
2019-05-26T09:45:25.194Z,16.06
2019-05-26T09:46:25.161Z,16.03
2019-05-26T09:47:36.782Z,16.06
2019-05-26T09:48:25.136Z,15.90
2019-05-26T09:49:25.153Z,15.94
2019-05-26T09:50:25.109Z,16.05
2019-05-26T09:51:25.102Z,16.18
2019-05-26T09:52:25.094Z,16.25
2019-05-26T09:53:25.123Z,16.29
2019-05-26T09:54:25.075Z,16.36
2019-05-26T09:55:25.056Z,16.41
2019-05-26T09:56:25.052Z,16.57
2019-05-26T09:57:25.039Z,16.37
2019-05-26T09:58:25.028Z,16.46
2019-05-26T09:59:25.024Z,16.18
2019-05-26T10:00:25.005Z,16.24
2019-05-26T10:01:24.993Z,16.13
2019-05-26T10:02:24.991Z,16.18
2019-05-26T10:03:24.973Z,16.02
2019-05-26T10:04:24.966Z,15.96
2019-05-26T10:05:24.947Z,15.91
2019-05-26T10:06:24.953Z,15.80
2019-05-26T10:07:24.924Z,15.78
2019-05-26T10:08:24.917Z,15.73
2019-05-26T10:09:24.915Z,15.78
2019-05-26T10:10:24.910Z,15.76
2019-05-26T10:11:24.881Z,15.75
2019-05-26T10:12:24.871Z,15.84
2019-05-26T10:13:31.690Z,15.94
2019-05-26T10:14:25.850Z,15.85
2019-05-26T10:15:24.878Z,15.98
2019-05-26T10:16:24.834Z,16.06
2019-05-26T10:17:24.809Z,16.21
2019-05-26T10:18:37.427Z,16.22
2019-05-26T10:19:24.786Z,16.44
2019-05-26T10:20:24.779Z,16.37
2019-05-26T10:21:24.777Z,16.39
2019-05-26T10:22:24.782Z,16.51
2019-05-26T10:23:24.745Z,16.61
2019-05-26T10:24:24.754Z,16.65
2019-05-26T10:25:24.725Z,16.76
2019-05-26T10:26:24.719Z,16.54
2019-05-26T10:27:24.703Z,16.55
2019-05-26T10:28:24.693Z,16.34
2019-05-26T10:29:24.698Z,16.28
2019-05-26T10:30:24.669Z,16.13
2019-05-26T10:31:24.668Z,16.06
2019-05-26T10:32:24.690Z,16.16
2019-05-26T10:33:24.658Z,16.28
2019-05-26T10:34:24.625Z,16.34
2019-05-26T10:35:24.622Z,16.16
2019-05-26T10:36:24.636Z,16.12
2019-05-26T10:37:24.590Z,16.13
2019-05-26T10:38:24.585Z,16.03
2019-05-26T10:39:32.520Z,15.94
2019-05-26T10:40:24.549Z,16.06
2019-05-26T10:41:24.540Z,16.08
2019-05-26T10:42:24.534Z,16.02
2019-05-26T10:43:24.515Z,16.02
2019-05-26T10:44:24.510Z,15.99
2019-05-26T10:45:24.496Z,16.02
2019-05-26T10:46:24.482Z,15.84
2019-05-26T10:47:24.514Z,15.75
2019-05-26T10:48:24.597Z,15.52
2019-05-26T10:49:24.449Z,15.45
2019-05-26T10:50:24.441Z,15.52
2019-05-26T10:51:24.428Z,15.62
2019-05-26T10:52:24.420Z,15.66
2019-05-26T10:53:24.408Z,15.72
2019-05-26T10:54:24.403Z,15.76
2019-05-26T10:55:24.388Z,15.84
2019-05-26T10:56:24.373Z,16.06
2019-05-26T10:57:24.431Z,16.03
2019-05-26T10:58:24.368Z,16.21
2019-05-26T10:59:24.331Z,16.34
2019-05-26T11:00:24.332Z,16.43
2019-05-26T11:01:24.317Z,16.50
2019-05-26T11:02:24.302Z,16.37
2019-05-26T11:03:24.324Z,16.32
2019-05-26T11:04:24.287Z,16.40
2019-05-26T11:05:24.267Z,16.43
2019-05-26T11:06:24.272Z,16.39
2019-05-26T11:07:26.866Z,16.34
2019-05-26T11:08:24.247Z,16.54
2019-05-26T11:09:24.232Z,16.66
2019-05-26T11:10:36.955Z,16.51
2019-05-26T11:11:24.201Z,16.69
2019-05-26T11:12:24.189Z,16.76
2019-05-26T11:13:24.187Z,17.04
2019-05-26T11:14:24.189Z,17.12
2019-05-26T11:15:24.154Z,17.07
2019-05-26T11:16:24.169Z,16.94
2019-05-26T11:17:24.132Z,16.82
2019-05-26T11:18:24.122Z,16.80
2019-05-26T11:19:24.108Z,16.77
2019-05-26T11:20:24.130Z,16.64
2019-05-26T11:21:24.084Z,16.74
2019-05-26T11:22:24.076Z,16.66
2019-05-26T11:23:24.067Z,16.72
2019-05-26T11:24:24.056Z,16.82
2019-05-26T11:25:24.079Z,16.76
2019-05-26T11:26:24.027Z,16.68
2019-05-26T11:27:24.020Z,16.97
2019-05-26T11:28:24.008Z,17.04
2019-05-26T11:29:24.005Z,17.20
2019-05-26T11:30:23.991Z,17.20
2019-05-26T11:31:23.990Z,17.01
2019-05-26T11:32:23.981Z,16.89
2019-05-26T11:33:23.950Z,16.91
2019-05-26T11:34:23.943Z,16.74
2019-05-26T11:35:23.939Z,16.83
2019-05-26T11:36:23.934Z,17.02
2019-05-26T11:37:23.920Z,17.07
2019-05-26T11:38:23.904Z,16.87
2019-05-26T11:39:23.889Z,16.74
2019-05-26T11:40:23.880Z,16.61
2019-05-26T11:41:36.899Z,16.40
2019-05-26T11:42:23.853Z,16.59
2019-05-26T11:43:23.843Z,16.41
2019-05-26T11:44:23.829Z,16.32
2019-05-26T11:45:23.831Z,16.29
2019-05-26T11:46:23.824Z,16.16
2019-05-26T11:47:23.835Z,16.34
2019-05-26T11:48:23.790Z,16.29
2019-05-26T11:49:23.792Z,16.31
2019-05-26T11:50:23.770Z,16.22
2019-05-26T11:51:23.761Z,16.25
2019-05-26T11:52:23.740Z,16.17
2019-05-26T11:53:23.742Z,16.24
2019-05-26T11:54:23.725Z,16.02
2019-05-26T11:55:23.708Z,15.94
2019-05-26T11:56:23.700Z,15.92
2019-05-26T11:57:23.698Z,15.75
2019-05-26T11:58:23.682Z,15.55
2019-05-26T11:59:23.661Z,15.62
2019-05-26T12:00:23.650Z,15.55
2019-05-26T12:01:23.650Z,15.70
2019-05-26T12:02:23.626Z,15.73
2019-05-26T12:03:23.653Z,15.87
2019-05-26T12:04:23.614Z,15.99
2019-05-26T12:05:23.595Z,16.05
2019-05-26T12:06:23.586Z,16.21
2019-05-26T12:07:23.576Z,16.03
2019-05-26T12:08:23.561Z,16.08
2019-05-26T12:09:23.556Z,16.16
2019-05-26T12:10:23.536Z,16.21
2019-05-26T12:11:23.530Z,16.18
2019-05-26T12:12:36.112Z,16.24
2019-05-26T12:13:23.507Z,16.21
2019-05-26T12:14:34.367Z,16.17
2019-05-26T12:15:24.521Z,16.32
2019-05-26T12:16:23.476Z,16.26
2019-05-26T12:17:23.567Z,16.22
2019-05-26T12:18:23.454Z,16.10
2019-05-26T12:19:23.441Z,15.91
2019-05-26T12:20:23.463Z,15.76
2019-05-26T12:21:23.423Z,15.83
2019-05-26T12:22:23.408Z,15.88
2019-05-26T12:23:23.392Z,15.73
2019-05-26T12:24:23.389Z,15.73
2019-05-26T12:25:23.383Z,15.65
2019-05-26T12:26:23.371Z,15.67
2019-05-26T12:27:23.352Z,15.60
2019-05-26T12:28:23.333Z,15.41
2019-05-26T12:29:23.322Z,15.43
2019-05-26T12:30:23.324Z,15.39
2019-05-26T12:31:23.347Z,15.36
2019-05-26T12:32:23.301Z,15.27
2019-05-26T12:33:23.277Z,15.27
2019-05-26T12:34:23.273Z,15.25
2019-05-26T12:35:23.253Z,15.14
2019-05-26T12:36:23.242Z,15.22
2019-05-26T12:37:23.241Z,15.12
2019-05-26T12:38:23.226Z,15.15
2019-05-26T12:39:23.207Z,15.19
2019-05-26T12:40:23.222Z,15.10
2019-05-26T12:41:23.199Z,15.05
2019-05-26T12:42:23.226Z,15.08
2019-05-26T12:43:36.015Z,15.05
2019-05-26T12:44:23.150Z,14.93
2019-05-26T12:45:23.143Z,14.82
2019-05-26T12:46:23.137Z,14.92
2019-05-26T12:47:23.121Z,14.92
2019-05-26T12:48:23.115Z,14.85
2019-05-26T12:49:23.098Z,14.71
2019-05-26T12:50:23.088Z,14.66
2019-05-26T12:51:23.089Z,14.70
2019-05-26T12:52:23.081Z,14.70